Time;durP1;ratioP1;P1;durP2;ratioP2;P2;SDS_P1;SDS_P2;PMS_P1;PMS_P2;Temp;Humidity;BMP_temperature;BMP_pressure;BME280_temperature;BME280_humidity;BME280_pressure;Samples;Min_cycle;Max_cycle;Signal;HPM_P1;HPM_P2
2022/11/10 00:00:23;;;;;;;32.80;21.83;;;;;;;11.78;72.16;95285.06;4993241;28;20192;-81
2022/11/10 00:02:50;;;;;;;32.97;22.20;;;;;;;11.78;72.31;95284.25;4997109;28;20177;-80
2022/11/10 00:05:17;;;;;;;28.23;21.77;;;;;;;11.76;72.26;95281.81;4994162;28;20196;-82
2022/11/10 00:07:44;;;;;;;32.10;22.83;;;;;;;11.76;72.10;95281.81;4992721;28;20578;-79
2022/11/10 00:10:11;;;;;;;29.23;20.67;;;;;;;11.75;72.11;95294.78;4994243;28;20228;-79
2022/11/10 00:12:38;;;;;;;30.27;21.23;;;;;;;11.73;72.33;95289.78;4994194;28;20764;-80
2022/11/10 00:17:53;;;;;;;34.57;22.07;;;;;;;11.69;72.41;95287.59;4992613;28;20192;-83
2022/11/10 00:20:20;;;;;;;27.90;21.07;;;;;;;11.67;72.40;95286.94;4992075;28;20196;-79
2022/11/10 00:22:46;;;;;;;29.07;21.13;;;;;;;11.67;72.33;95290.31;4993435;28;20683;-79
2022/11/10 00:25:13;;;;;;;29.33;21.83;;;;;;;11.66;72.33;95287.88;4994529;28;20215;-79
2022/11/10 00:27:42;;;;;;;27.20;20.33;;;;;;;11.62;72.33;95281.38;4993942;28;20212;-81
2022/11/10 00:30:11;;;;;;;31.23;21.80;;;;;;;11.60;72.27;95281.50;4995119;28;20228;-79
2022/11/10 00:32:38;;;;;;;30.53;21.10;;;;;;;11.59;72.38;95281.63;4998662;28;20201;-79
2022/11/10 00:35:06;;;;;;;32.07;20.53;;;;;;;11.61;72.33;95288.22;4997860;28;20193;-79
2022/11/10 00:37:33;;;;;;;33.30;21.97;;;;;;;11.59;72.19;95279.88;4996909;28;20683;-80
2022/11/10 00:40:00;;;;;;;30.63;20.30;;;;;;;11.58;72.35;95274.91;4994980;28;20200;-80
2022/11/10 00:42:27;;;;;;;28.23;20.47;;;;;;;11.55;72.35;95281.88;4991371;28;20542;-80
2022/11/10 00:44:54;;;;;;;31.60;21.70;;;;;;;11.50;72.27;95270.41;4991957;28;20189;-80
2022/11/10 00:47:22;;;;;;;34.20;20.30;;;;;;;11.50;72.27;95266.09;4992210;28;20197;-84
2022/11/10 00:49:49;;;;;;;25.43;20.10;;;;;;;11.51;72.20;95270.28;4992113;28;20239;-86
2022/11/10 00:52:16;;;;;;;28.57;20.80;;;;;;;11.38;72.44;95244.06;4992346;28;20229;-81
2022/11/10 00:54:44;;;;;;;27.13;20.37;;;;;;;11.48;72.38;95265.41;4992034;28;20204;-82
2022/11/10 00:57:11;;;;;;;28.00;20.43;;;;;;;11.44;72.32;95260.66;4992016;28;20193;-79
2022/11/10 00:59:38;;;;;;;28.70;21.10;;;;;;;11.43;72.25;95256.50;4991659;28;20187;-80
2022/11/10 01:02:05;;;;;;;26.53;19.27;;;;;;;11.44;72.30;95261.50;4991409;28;20205;-81
2022/11/10 01:04:34;;;;;;;30.30;19.70;;;;;;;11.34;72.28;95244.47;4993432;28;20189;-81
2022/11/10 01:07:00;;;;;;;26.90;19.53;;;;;;;11.41;72.17;95258.38;4994193;28;20192;-81
2022/11/10 01:09:27;;;;;;;24.93;18.50;;;;;;;11.40;72.13;95260.13;4994660;28;20227;-81
2022/11/10 01:11:54;;;;;;;29.63;20.47;;;;;;;11.40;72.27;95261.88;4995522;28;20201;-80
2022/11/10 01:14:21;;;;;;;26.57;18.80;;;;;;;11.34;72.34;95250.41;4997975;28;20197;-79
2022/11/10 01:16:48;;;;;;;24.80;17.80;;;;;;;11.37;72.52;95262.94;4997651;28;20205;-80
2022/11/10 01:19:14;;;;;;;28.27;20.17;;;;;;;11.27;72.51;95251.88;5003976;28;20200;-82
2022/11/10 01:21:43;;;;;;;24.77;18.80;;;;;;;11.31;72.41;95255.75;5008008;28;20181;-79
2022/11/10 01:24:10;;;;;;;30.00;19.53;;;;;;;11.34;72.26;95262.38;5008538;28;20196;-80
2022/11/10 01:26:37;;;;;;;25.50;18.97;;;;;;;11.24;72.26;95247.00;5010297;28;20211;-80
2022/11/10 01:29:04;;;;;;;26.87;19.07;;;;;;;11.26;72.31;95251.03;5004626;28;20220;-79
2022/11/10 01:31:31;;;;;;;27.80;19.87;;;;;;;11.19;72.37;95238.88;5003962;28;20240;-80
2022/11/10 01:33:59;;;;;;;27.77;19.87;;;;;;;11.23;72.24;95247.94;5006343;28;20189;-81
2022/11/10 01:36:25;;;;;;;24.47;18.53;;;;;;;11.20;72.24;95246.44;5004541;28;20196;-82
2022/11/10 01:38:55;;;;;;;27.27;19.47;;;;;;;11.21;72.33;95248.03;4999773;28;20196;-80
2022/11/10 01:41:22;;;;;;;24.83;18.53;;;;;;;11.09;72.72;95231.13;4995976;28;20185;-81
2022/11/10 01:43:49;;;;;;;27.30;19.80;;;;;;;11.20;72.34;95253.31;4996625;28;20196;-86
2022/11/10 01:46:16;;;;;;;32.13;18.93;;;;;;;11.19;72.18;95251.69;4997430;28;20201;-88
2022/11/10 01:48:50;;;;;;;23.83;18.57;;;;;;;10.84;72.44;95196.56;5005822;28;20223;-80
2022/11/10 01:51:23;;;;;;;24.80;18.03;;;;;;;11.17;72.41;95256.09;5013206;28;20203;-80
2022/11/10 01:53:53;;;;;;;22.47;17.87;;;;;;;11.12;72.44;95248.00;5011751;28;20280;-84
2022/11/10 01:56:23;;;;;;;29.47;19.73;;;;;;;10.96;72.33;95226.22;5000121;28;20200;-89
2022/11/10 01:58:56;;;;;;;27.20;18.20;;;;;;;10.98;72.28;95231.25;5005764;28;20265;-87
2022/11/10 02:01:24;;;;;;;24.70;18.37;;;;;;;11.12;72.36;95248.00;5006246;28;20200;-82
2022/11/10 02:03:53;;;;;;;28.50;18.67;;;;;;;11.09;72.40;95251.63;5001604;28;20189;-81
2022/11/10 02:06:22;;;;;;;26.67;20.00;;;;;;;11.01;72.41;95238.63;5004250;28;20208;-81
2022/11/10 02:08:50;;;;;;;24.47;19.47;;;;;;;11.01;72.62;95241.19;5000585;28;20229;-82
2022/11/10 02:11:18;;;;;;;29.33;19.63;;;;;;;11.03;72.53;95252.94;5002258;28;20489;-81
2022/11/10 02:13:46;;;;;;;28.27;19.10;;;;;;;10.88;72.49;95236.31;5001506;28;20189;-81
2022/11/10 02:16:13;;;;;;;26.03;18.20;;;;;;;10.99;72.47;95250.75;4994388;28;20743;-80
2022/11/10 02:18:40;;;;;;;25.70;17.83;;;;;;;10.81;72.44;95222.38;4995807;28;20189;-81
2022/11/10 02:21:09;;;;;;;22.70;17.30;;;;;;;11.02;72.46;95259.00;4993745;28;20259;-81
2022/11/10 02:23:50;;;;;;;26.23;18.37;;;;;;;11.01;72.59;95259.13;4995245;28;20244;-82
2022/11/10 02:26:20;;;;;;;21.30;17.33;;;;;;;10.89;72.39;95247.34;4994032;28;20189;-81
2022/11/10 02:28:47;;;;;;;24.23;17.97;;;;;;;10.94;72.47;95258.81;4994351;28;20204;-82
2022/11/10 02:31:14;;;;;;;29.40;18.30;;;;;;;10.98;72.49;95274.75;4994163;28;20216;-83
2022/11/10 02:33:41;;;;;;;25.40;17.60;;;;;;;10.98;72.59;95267.88;4994103;28;20192;-82
2022/11/10 02:36:09;;;;;;;25.27;17.80;;;;;;;10.96;72.38;95274.03;4997335;28;20208;-84
2022/11/10 02:38:36;;;;;;;25.17;17.77;;;;;;;10.89;72.47;95267.81;4995063;28;20200;-87
2022/11/10 02:41:03;;;;;;;24.33;16.97;;;;;;;10.95;72.69;95278.34;4994356;28;20196;-81
2022/11/10 02:43:30;;;;;;;21.00;16.10;;;;;;;10.94;72.46;95281.03;4993924;28;20211;-84
2022/11/10 02:45:57;;;;;;;25.10;16.93;;;;;;;10.93;72.52;95280.25;4994640;28;20200;-82
2022/11/10 02:48:24;;;;;;;22.77;17.30;;;;;;;10.93;72.54;95276.88;4995453;28;20193;-87
2022/11/10 02:50:51;;;;;;;20.90;15.60;;;;;;;10.88;72.56;95277.25;4995551;28;20205;-86
2022/11/10 02:53:22;;;;;;;23.83;16.87;;;;;;;10.86;72.47;95266.31;4997355;28;20256;-87
2022/11/10 02:55:49;;;;;;;22.60;16.60;;;;;;;10.90;72.32;95274.56;4995411;28;20252;-85
2022/11/10 02:58:16;;;;;;;22.17;16.27;;;;;;;10.84;72.45;95275.03;4994546;28;20592;-83
2022/11/10 03:00:42;;;;;;;24.70;16.77;;;;;;;10.83;72.26;95274.22;4993057;28;20296;-84
2022/11/10 03:03:09;;;;;;;24.20;17.63;;;;;;;10.87;72.65;95283.28;4993919;28;20226;-84
2022/11/10 03:05:36;;;;;;;23.80;15.93;;;;;;;10.81;72.49;95273.56;4994544;28;20186;-85
2022/11/10 03:08:04;;;;;;;21.90;16.00;;;;;;;10.85;72.34;95282.59;4994378;28;20193;-85
2022/11/10 03:10:32;;;;;;;23.70;16.90;;;;;;;10.85;72.60;95280.06;4996870;28;20209;-82
2022/11/10 03:13:04;;;;;;;20.87;16.77;;;;;;;10.54;72.39;95238.25;4998332;28;20248;-84
2022/11/10 03:15:31;;;;;;;21.63;16.57;;;;;;;10.75;72.36;95269.75;5007835;28;20212;-84
2022/11/10 03:18:03;;;;;;;19.60;16.47;;;;;;;10.72;72.53;95266.63;5006696;28;20201;-85
2022/11/10 03:20:30;;;;;;;23.07;16.03;;;;;;;10.81;72.45;95283.78;4997053;28;20200;-90
2022/11/10 03:23:01;;;;;;;20.87;16.53;;;;;;;10.75;72.35;95280.00;4995229;28;20204;-83
2022/11/10 03:25:28;;;;;;;21.17;16.87;;;;;;;10.79;72.50;95289.03;4993758;28;20656;-86
2022/11/10 03:27:56;;;;;;;20.10;15.73;;;;;;;10.79;72.40;95290.75;4993071;28;20231;-83
2022/11/10 03:30:23;;;;;;;17.53;14.83;;;;;;;10.77;72.52;95285.78;4973239;28;20705;-84
2022/11/10 03:32:50;;;;;;;20.13;15.97;;;;;;;10.73;72.47;95284.41;4974300;28;20629;-83
2022/11/10 03:35:17;;;;;;;21.23;16.80;;;;;;;10.76;72.55;95284.16;4974409;28;20194;-81
2022/11/10 03:37:44;;;;;;;22.93;16.43;;;;;;;10.70;72.61;95282.09;4975332;28;20592;-89
2022/11/10 03:40:12;;;;;;;23.60;16.70;;;;;;;10.75;72.54;95290.22;4974219;28;20190;-81
2022/11/10 03:42:42;;;;;;;23.13;16.70;;;;;;;10.66;72.45;95278.16;4976749;28;20202;-79
2022/11/10 03:45:10;;;;;;;19.10;14.70;;;;;;;10.68;72.37;95276.28;4994854;28;20200;-81
2022/11/10 03:47:38;;;;;;;21.73;15.73;;;;;;;10.73;72.53;95294.63;4998441;28;20251;-80
2022/11/10 03:50:06;;;;;;;25.40;16.70;;;;;;;10.42;72.53;95245.16;5008225;28;20228;-81
2022/11/10 03:52:33;;;;;;;20.27;15.53;;;;;;;10.71;72.61;95295.72;5004201;28;20233;-81
2022/11/10 03:55:00;;;;;;;24.80;15.77;;;;;;;10.70;72.47;95297.44;4997528;28;20197;-83
2022/11/10 03:57:27;;;;;;;20.90;16.23;;;;;;;10.50;72.25;95265.00;4996903;28;20193;-81
2022/11/10 03:59:54;;;;;;;21.10;15.43;;;;;;;10.68;72.50;95295.94;4996394;28;20185;-82
2022/11/10 04:02:22;;;;;;;24.23;16.97;;;;;;;10.48;72.58;95267.66;4995795;28;20193;-80
2022/11/10 04:10:18;;;;;;;22.00;15.50;;;;;;;10.55;72.45;95288.44;4995129;28;20243;-83
2022/11/10 04:15:41;;;;;;;23.87;15.37;;;;;;;10.60;72.41;95303.41;4997489;28;20192;-83
2022/11/10 04:21:01;;;;;;;20.53;15.20;;;;;;;10.53;72.45;95297.97;4972668;28;20321;-83
2022/11/10 04:23:33;;;;;;;21.47;16.00;;;;;;;10.38;72.59;95274.44;4971765;28;20713;-84
2022/11/10 04:28:48;;;;;;;21.67;14.63;;;;;;;10.49;72.41;95307.66;4972620;28;20184;-86
2022/11/10 04:31:17;;;;;;;20.67;15.27;;;;;;;10.52;72.55;95312.50;4972286;28;20316;-83
2022/11/10 04:33:46;;;;;;;22.43;15.73;;;;;;;10.50;72.60;95314.38;4973143;28;20201;-82
2022/11/10 04:36:15;;;;;;;20.67;15.47;;;;;;;10.33;72.47;95285.97;4973553;28;20285;-82
2022/11/10 04:38:42;;;;;;;18.90;15.00;;;;;;;10.39;72.57;95298.25;4976212;28;20193;-82
2022/11/10 04:41:10;;;;;;;20.87;14.70;;;;;;;10.48;72.31;95311.13;4976856;28;20193;-82
2022/11/10 04:43:37;;;;;;;22.43;15.17;;;;;;;10.48;72.36;95307.75;4979701;28;20185;-81
2022/11/10 04:46:06;;;;;;;20.33;14.90;;;;;;;10.43;72.18;95307.31;4978912;28;20190;-81
2022/11/10 04:48:34;;;;;;;19.07;14.93;;;;;;;10.46;72.31;95315.56;4977356;28;20194;-77
2022/11/10 04:51:05;;;;;;;22.23;15.57;;;;;;;10.32;72.41;95295.41;4978455;28;20221;-81
2022/11/10 04:53:32;;;;;;;18.57;14.40;;;;;;;10.43;72.49;95315.81;4978620;28;20233;-79
2022/11/10 04:55:58;;;;;;;18.60;15.00;;;;;;;10.43;72.38;95323.47;4980298;28;20197;-80
2022/11/10 04:58:25;;;;;;;21.73;15.43;;;;;;;10.14;72.26;95272.03;5000077;28;20203;-80
2022/11/10 05:00:52;;;;;;;23.47;15.13;;;;;;;10.41;72.18;95317.69;5001450;28;20462;-82
2022/11/10 05:03:19;;;;;;;19.23;14.30;;;;;;;10.30;72.40;95300.63;5002131;28;20251;-80
2022/11/10 05:05:46;;;;;;;20.93;15.30;;;;;;;10.36;72.17;95312.09;5000878;28;20185;-81
2022/11/10 05:08:14;;;;;;;24.00;15.83;;;;;;;10.40;72.39;95322.91;5000380;28;20189;-80
2022/11/10 05:10:41;;;;;;;19.13;15.30;;;;;;;10.40;72.33;95320.34;5001289;28;20665;-82
2022/11/10 05:13:09;;;;;;;19.33;14.20;;;;;;;10.31;72.20;95314.19;5007311;28;20185;-81
2022/11/10 05:15:38;;;;;;;21.73;15.03;;;;;;;10.39;72.35;95327.19;5006172;28;20189;-80
2022/11/10 05:18:11;;;;;;;19.63;16.30;;;;;;;10.39;72.15;95326.38;5007719;28;20641;-82
2022/11/10 05:20:38;;;;;;;20.27;15.50;;;;;;;10.33;72.27;95316.66;5011009;28;20189;-84
2022/11/10 05:25:50;;;;;;;20.00;14.60;;;;;;;10.36;72.22;95327.44;5006059;28;20191;-80
2022/11/10 05:28:17;;;;;;;23.43;15.23;;;;;;;10.42;72.24;95333.81;5007728;28;20189;-82
2022/11/10 05:30:49;;;;;;;20.67;15.73;;;;;;;10.44;72.16;95326.84;5002668;28;20594;-82
2022/11/10 05:33:18;;;;;;;22.40;15.67;;;;;;;10.37;72.19;95311.19;5004231;28;20272;-83
2022/11/10 05:35:49;;;;;;;18.07;14.57;;;;;;;10.48;72.20;95326.47;5007430;28;20199;-84
2022/11/10 05:38:17;;;;;;;21.10;15.47;;;;;;;10.49;71.88;95325.56;4994517;28;20193;-81
2022/11/10 05:40:44;;;;;;;21.73;15.97;;;;;;;10.54;72.31;95327.75;4991067;28;20197;-83
2022/11/10 05:43:12;;;;;;;19.40;14.53;;;;;;;10.57;72.25;95329.22;4982962;28;20536;-80
2022/11/10 05:45:41;;;;;;;20.87;14.80;;;;;;;10.45;72.17;95306.28;5000054;28;20216;-81
2022/11/10 05:48:12;;;;;;;21.83;15.57;;;;;;;10.55;71.89;95324.25;5007858;28;20201;-82
2022/11/10 05:50:39;;;;;;;21.00;15.07;;;;;;;10.74;71.87;95346.59;4997929;28;20217;-86
2022/11/10 05:53:06;;;;;;;19.77;15.60;;;;;;;10.80;71.80;95346.94;4993052;28;20224;-87
2022/11/10 05:55:33;;;;;;;20.10;15.10;;;;;;;10.81;71.44;95340.06;4992599;28;20201;-88
2022/11/10 05:58:00;;;;;;;20.37;15.53;;;;;;;10.62;71.47;95299.81;4992557;28;20197;-90
2022/11/10 06:00:30;;;;;;;20.37;15.60;;;;;;;10.90;71.46;95336.78;4994828;28;20224;-89
2022/11/10 06:03:02;;;;;;;24.07;15.33;;;;;;;11.11;71.36;95359.03;4995666;28;20237;-86
2022/11/10 06:05:35;;;;;;;19.37;14.10;;;;;;;11.29;84.63;95357.50;4995043;28;20255;-84
2022/11/10 06:08:04;;;;;;;21.47;16.23;;;;;;;11.87;100.00;95346.75;4994889;28;20204;-77
2022/11/10 06:10:31;;;;;;;25.50;17.53;;;;;;;12.68;100.00;95365.44;4976919;28;20229;-78
2022/11/10 06:12:58;;;;;;;23.47;19.20;;;;;;;13.34;100.00;95364.75;4972580;28;20190;-78
2022/11/10 06:15:25;;;;;;;26.20;18.50;;;;;;;13.91;100.00;95353.53;4972449;28;20645;-82
2022/11/10 06:18:49;;;;;;;22.67;16.87;;;;;;;14.63;100.00;95367.38;4972712;28;20207;-82
2022/11/10 06:21:17;;;;;;;26.13;16.43;;;;;;;15.06;100.00;95346.03;4932200;29;20206;-87
2022/11/10 06:23:47;;;;;;;24.23;15.47;;;;;;;15.66;100.00;95380.63;4933851;28;20199;-91
2022/11/10 06:26:16;;;;;;;23.70;15.83;;;;;;;15.85;100.00;95371.91;4934713;29;20674;-87
2022/11/10 06:28:43;;;;;;;22.03;16.10;;;;;;;15.86;100.00;95334.81;4935056;29;20206;-86
2022/11/10 06:31:10;;;;;;;23.30;15.40;;;;;;;16.29;99.62;95393.22;4932929;29;20230;-88
2022/11/10 06:33:37;;;;;;;28.23;16.57;;;;;;;16.15;96.99;95357.66;4934544;29;20565;-91
2022/11/10 06:36:05;;;;;;;25.90;15.57;;;;;;;16.35;94.22;95374.50;4934353;29;20659;-87
2022/11/10 06:38:34;;;;;;;21.13;16.50;;;;;;;16.36;91.00;95365.78;4933399;29;20210;-88
2022/11/10 06:41:03;;;;;;;25.10;16.70;;;;;;;16.75;88.46;95411.78;4933374;29;20195;-89
2022/11/10 06:43:30;;;;;;;26.60;16.60;;;;;;;16.70;86.17;95370.88;4934916;29;20239;-89
2022/11/10 06:46:06;;;;;;;22.30;15.67;;;;;;;16.83;84.22;95360.13;4920158;29;20214;-91
2022/11/10 06:48:35;;;;;;;26.97;16.87;;;;;;;17.22;82.47;95385.34;4926157;29;20198;-92
2022/11/10 06:53:54;;;;;;;24.37;17.10;;;;;;;17.91;79.63;95416.84;4924654;29;20232;-92
2022/11/10 06:56:24;;;;;;;20.97;17.03;;;;;;;17.94;78.61;95377.72;4952774;28;20204;-92
2022/11/10 06:58:56;;;;;;;21.53;17.30;;;;;;;18.26;77.14;95384.53;4991709;28;20193;-91
2022/11/10 07:01:26;;;;;;;24.17;17.00;;;;;;;18.35;75.81;95354.25;4989877;28;20197;-92
2022/11/10 07:04:03;;;;;;;21.17;16.73;;;;;;;18.86;74.55;95390.91;4983735;28;20198;-90
2022/11/10 07:06:33;;;;;;;21.13;16.37;;;;;;;18.78;73.36;95338.19;4985446;28;20212;-91
2022/11/10 07:09:03;;;;;;;21.10;16.13;;;;;;;19.20;71.89;95364.59;4985014;28;20201;-90
2022/11/10 07:11:31;;;;;;;26.80;18.50;;;;;;;19.68;70.71;95398.91;4983275;28;20577;-91
2022/11/10 07:14:00;;;;;;;22.20;17.27;;;;;;;19.77;69.59;95372.72;4983023;28;20228;-91
2022/11/10 07:22:34;;;;;;;22.08;17.45;;;;;;;20.94;65.78;95427.38;4991717;28;20288;-91
2022/11/10 07:25:13;;;;;;;21.48;16.08;;;;;;;21.14;64.88;95427.56;4993626;28;20186;-92
2022/11/10 07:27:44;;;;;;;20.00;16.92;;;;;;;21.16;63.90;95391.78;4992630;28;20217;-92
2022/11/10 07:30:14;;;;;;;21.70;16.83;;;;;;;21.61;63.16;95434.03;4993044;28;20213;-91
2022/11/10 07:33:11;;;;;;;20.77;17.20;;;;;;;21.81;62.23;95436.81;4992118;28;20189;-89
2022/11/10 07:35:41;;;;;;;22.65;16.73;;;;;;;21.99;61.91;95441.56;4997245;28;20229;-92
2022/11/10 07:38:16;;;;;;;21.35;16.10;;;;;;;21.98;60.76;95413.91;4996560;28;20201;-92
2022/11/10 07:41:10;;;;;;;20.52;16.48;;;;;;;21.78;60.46;95369.47;4997464;28;20173;-91
2022/11/10 07:46:30;;;;;;;24.48;17.63;;;;;;;22.10;60.15;95414.16;4997927;28;20197;-92
2022/11/10 07:48:59;;;;;;;23.50;18.83;;;;;;;22.24;60.32;95434.94;4998942;28;20189;-92
2022/11/10 07:51:32;;;;;;;25.13;18.45;;;;;;;21.83;59.42;95361.09;4999282;28;20273;-91
2022/11/10 07:56:56;;;;;;;29.08;19.02;;;;;;;21.94;57.94;95360.56;4997232;28;20193;-91
2022/11/10 07:59:23;;;;;;;23.90;18.48;;;;;;;22.33;57.99;95440.78;4998796;28;20245;-92
2022/11/10 08:01:50;;;;;;;25.02;19.20;;;;;;;22.24;57.48;95437.53;4999333;28;20185;-91
2022/11/10 08:10:31;;;;;;;28.02;18.75;;;;;;;21.65;56.29;95401.44;4997988;28;20185;-92
2022/11/10 08:13:08;;;;;;;25.30;19.75;;;;;;;21.67;56.15;95429.88;4998559;28;20185;-92
2022/11/10 08:15:36;;;;;;;28.92;19.17;;;;;;;21.34;56.06;95403.59;4996874;28;20186;-91
2022/11/10 08:20:56;;;;;;;27.00;19.58;;;;;;;20.93;56.28;95394.53;4997372;28;20225;-91
2022/11/10 08:26:04;;;;;;;23.92;17.48;;;;;;;20.86;56.35;95431.88;4981201;28;20244;-91
2022/11/10 08:28:35;;;;;;;26.10;19.67;;;;;;;20.46;56.51;95392.38;4979534;28;20202;-91
2022/11/10 08:31:04;;;;;;;20.92;17.58;;;;;;;20.68;56.71;95448.69;4978711;28;20264;-92
2022/11/10 08:33:32;;;;;;;22.15;17.40;;;;;;;20.60;56.62;95448.78;4979050;28;20672;-93
2022/11/10 08:36:01;;;;;;;23.52;17.85;;;;;;;20.41;56.61;95426.72;4984753;28;20198;-91
2022/11/10 08:38:42;;;;;;;21.52;17.70;;;;;;;20.37;56.75;95427.25;4978209;28;20342;-92
2022/11/10 08:41:09;;;;;;;22.60;18.40;;;;;;;20.43;57.03;95442.94;4978347;28;20205;-93
2022/11/10 08:43:40;;;;;;;21.23;17.53;;;;;;;20.39;56.74;95438.28;4976698;28;20198;-95
2022/11/10 08:46:11;;;;;;;21.97;16.57;;;;;;;20.36;56.96;95434.25;4975781;28;20202;-91
2022/11/10 08:48:42;;;;;;;22.73;18.37;;;;;;;20.19;56.87;95412.03;4977770;28;20202;-91
2022/11/10 08:51:12;;;;;;;21.55;17.95;;;;;;;20.20;56.98;95421.44;4977295;28;20312;-92
2022/11/10 08:53:42;;;;;;;27.20;17.40;;;;;;;20.34;56.92;95451.00;4975896;28;20231;-92
2022/11/10 08:56:09;;;;;;;21.90;17.77;;;;;;;20.26;57.03;95442.31;4974459;28;20194;-91
2022/11/10 08:58:44;;;;;;;22.30;18.27;;;;;;;20.21;57.24;95455.03;4978056;28;20193;-92
2022/11/10 09:01:13;;;;;;;24.63;18.42;;;;;;;20.07;57.10;95436.81;4979255;28;20197;-92
2022/11/10 09:03:42;;;;;;;22.83;17.83;;;;;;;19.91;57.36;95423.03;4979509;28;20281;-91
2022/11/10 09:06:11;;;;;;;25.95;17.67;;;;;;;19.95;57.30;95433.88;4980140;28;20449;-91
2022/11/10 09:08:39;;;;;;;23.17;17.30;;;;;;;19.96;57.68;95446.69;4981925;28;20225;-91
2022/11/10 09:11:07;;;;;;;24.83;18.87;;;;;;;19.56;57.36;95401.13;4983614;28;20229;-92
2022/11/10 09:13:35;;;;;;;21.30;18.40;;;;;;;19.77;57.70;95455.78;4987446;28;20186;-92
2022/11/10 09:16:05;;;;;;;23.35;19.15;;;;;;;19.59;57.73;95428.47;4989552;28;20270;-93
2022/11/10 09:18:33;;;;;;;22.23;19.27;;;;;;;19.70;57.91;95441.09;4995750;28;20185;-91
2022/11/10 09:21:03;;;;;;;28.83;19.27;;;;;;;19.55;58.05;95433.22;4997980;28;20182;-93
2022/11/10 09:23:31;;;;;;;26.10;21.47;;;;;;;19.46;58.00;95429.88;4997589;28;20174;-92
2022/11/10 09:26:00;;;;;;;28.33;21.63;;;;;;;19.29;58.15;95413.63;4997720;28;20188;-93
2022/11/10 09:28:28;;;;;;;25.37;20.93;;;;;;;19.26;57.98;95414.00;4997109;28;20206;-91
2022/11/10 09:30:56;;;;;;;31.07;22.73;;;;;;;18.83;58.09;95348.03;4997470;28;20285;-93
2022/11/10 09:33:25;;;;;;;28.17;22.47;;;;;;;19.38;58.36;95432.53;4989551;28;20204;-92
2022/11/10 09:36:00;;;;;;;29.43;23.00;;;;;;;19.06;58.28;95379.13;4990368;28;20282;-92
2022/11/10 09:38:29;;;;;;;32.07;24.33;;;;;;;19.05;58.26;95387.88;5000486;28;20190;-92
2022/11/10 09:41:03;;;;;;;31.27;24.53;;;;;;;19.28;58.27;95425.00;4998344;28;20198;-91
2022/11/10 09:43:37;;;;;;;31.97;23.70;;;;;;;19.34;58.33;95439.03;4994038;28;20191;-91
2022/11/10 09:46:12;;;;;;;30.33;22.90;;;;;;;19.07;58.13;95390.31;4988296;28;20628;-90
2022/11/10 09:48:51;;;;;;;30.90;22.07;;;;;;;18.88;58.24;95363.06;4992661;28;20193;-93
2022/11/10 09:51:24;;;;;;;27.53;22.00;;;;;;;19.30;58.26;95430.03;4986889;28;20232;-92
2022/11/10 09:53:58;;;;;;;31.93;23.47;;;;;;;19.29;58.43;95420.59;4984730;28;20229;-91
2022/11/10 09:56:35;;;;;;;31.43;23.80;;;;;;;19.32;58.37;95428.03;4992312;28;20182;-91
2022/11/10 09:59:21;;;;;;;32.60;23.80;;;;;;;19.25;58.12;95414.94;4998389;28;20293;-92
2022/11/10 10:01:51;;;;;;;29.33;23.37;;;;;;;19.33;58.30;95421.88;4991690;28;20212;-91
2022/11/10 10:04:41;;;;;;;28.93;23.07;;;;;;;19.25;58.20;95414.94;4986639;28;20197;-92
2022/11/10 10:07:14;;;;;;;26.70;22.07;;;;;;;19.00;58.31;95379.84;4988484;28;20193;-91
2022/11/10 10:10:00;;;;;;;28.73;23.37;;;;;;;19.23;58.13;95405.75;4986758;28;20206;-95
2022/11/10 10:12:53;;;;;;;35.03;24.67;;;;;;;19.10;57.83;95387.38;4985076;28;20348;-92
2022/11/10 10:15:34;;;;;;;31.27;23.37;;;;;;;19.00;57.90;95375.44;4983893;28;20645;-91
2022/11/10 10:18:21;;;;;;;30.03;23.60;;;;;;;18.89;57.71;95362.06;4992544;28;20198;-92
2022/11/10 10:21:12;;;;;;;31.17;23.87;;;;;;;19.29;58.04;95424.00;4999900;28;20257;-92
2022/11/10 10:23:46;;;;;;;30.77;24.73;;;;;;;19.17;57.98;95407.25;4998796;28;20220;-92
2022/11/10 10:26:17;;;;;;;29.00;23.50;;;;;;;19.14;57.98;95397.22;4998893;28;20202;-92
2022/11/10 10:28:48;;;;;;;32.50;24.43;;;;;;;19.20;58.00;95409.47;4998564;28;20259;-93
2022/11/10 10:31:26;;;;;;;33.83;23.73;;;;;;;19.29;58.10;95413.63;4996940;28;20407;-91
2022/11/10 10:33:57;;;;;;;30.43;22.03;;;;;;;19.02;57.93;95370.06;4983908;28;20753;-91
2022/11/10 10:36:32;;;;;;;28.00;22.73;;;;;;;18.82;57.86;95343.00;4977892;28;20197;-90
2022/11/10 10:39:06;;;;;;;29.10;22.60;;;;;;;19.30;57.70;95420.44;4978012;28;20204;-90
2022/11/10 10:41:36;;;;;;;27.40;21.97;;;;;;;18.93;57.92;95358.16;4977414;28;20288;-91
2022/11/10 10:44:11;;;;;;;27.07;22.17;;;;;;;19.30;57.91;95415.25;4977762;28;20232;-91
2022/11/10 10:46:46;;;;;;;27.87;21.97;;;;;;;19.31;57.99;95410.88;4976688;28;20315;-92
2022/11/10 10:49:22;;;;;;;32.30;21.50;;;;;;;18.98;57.83;95359.25;4977643;28;20200;-93
2022/11/10 10:52:15;;;;;;;29.13;22.30;;;;;;;19.13;57.92;95374.03;4979232;28;20284;-89
2022/11/10 10:54:43;;;;;;;28.77;21.30;;;;;;;19.32;57.99;95398.72;4986166;28;20218;-92
2022/11/10 10:57:22;;;;;;;28.07;22.30;;;;;;;18.82;57.84;95312.69;4979276;28;20201;-92
2022/11/10 10:59:50;;;;;;;31.53;21.53;;;;;;;19.20;57.90;95378.38;4977289;28;20204;-92
2022/11/10 11:02:32;;;;;;;29.23;23.17;;;;;;;19.32;58.09;95388.34;4977388;28;20198;-91
2022/11/10 11:05:12;;;;;;;29.87;22.20;;;;;;;19.30;57.85;95386.72;4977712;28;20256;-93
2022/11/10 11:07:42;;;;;;;27.17;20.90;;;;;;;19.10;57.84;95358.84;4977716;28;20284;-91
2022/11/10 11:13:25;;;;;;;33.33;22.10;;;;;;;19.29;57.70;95382.50;4979100;28;20308;-91
2022/11/10 11:15:59;;;;;;;27.87;21.37;;;;;;;19.17;57.70;95362.34;4981152;28;20310;-91
2022/11/10 11:18:31;;;;;;;27.60;20.67;;;;;;;19.05;57.92;95333.44;4983108;28;20197;-91
2022/11/10 11:21:12;;;;;;;27.63;22.40;;;;;;;18.79;57.82;95293.13;4986756;28;20291;-91
2022/11/10 11:23:55;;;;;;;24.03;20.83;;;;;;;19.28;57.92;95383.50;4986203;28;20228;-91
2022/11/10 11:26:33;;;;;;;25.93;21.40;;;;;;;19.29;57.90;95363.53;4989084;28;20561;-90
2022/11/10 11:29:17;;;;;;;26.07;19.90;;;;;;;19.29;57.66;95368.72;4994076;28;20218;-90
2022/11/10 11:31:54;;;;;;;28.20;21.27;;;;;;;18.79;57.86;95289.75;4995910;28;20328;-92
2022/11/10 11:34:37;;;;;;;24.93;21.53;;;;;;;19.29;57.75;95364.34;4997525;28;20201;-92
2022/11/10 11:37:21;;;;;;;27.77;20.57;;;;;;;19.14;57.90;95337.59;4997161;28;20261;-92
2022/11/10 11:40:04;;;;;;;26.93;20.53;;;;;;;19.30;57.81;95353.00;4996919;28;20193;-92
2022/11/10 11:57:25;;;;;;;31.77;21.43;;;;;;;18.80;58.15;95283.56;4949804;28;20222;-93
2022/11/10 12:04:16;;;;;;;28.20;21.43;;;;;;;19.27;58.11;95357.75;4909410;29;20212;-92
2022/11/10 12:07:10;;;;;;;;;;;;;;;;;;;;;
2022/11/10 12:09:52;;;;;;;25.10;20.80;;;;;;;18.94;58.27;95310.50;4912137;29;20703;-91
2022/11/10 12:12:43;;;;;;;24.93;21.00;;;;;;;18.91;58.57;95311.69;4907050;29;20352;-91
2022/11/10 12:15:31;;;;;;;28.13;20.67;;;;;;;19.21;58.30;95359.25;4910980;29;20200;-93
2022/11/10 12:18:14;;;;;;;27.80;21.57;;;;;;;19.05;58.45;95330.84;4898630;29;20201;-92
2022/11/10 12:20:57;;;;;;;26.27;20.97;;;;;;;19.19;58.42;95356.00;4898748;29;20216;-92
2022/11/10 12:23:41;;;;;;;25.33;20.27;;;;;;;18.69;58.38;95282.19;4897617;29;20694;-92
2022/11/10 12:26:23;;;;;;;29.77;22.53;;;;;;;19.15;58.58;95352.16;4898492;29;20224;-93
2022/11/10 12:29:03;;;;;;;25.83;20.47;;;;;;;18.74;58.27;95294.66;4897588;29;20250;-92
2022/11/10 12:31:38;;;;;;;26.90;20.10;;;;;;;18.72;58.60;95292.22;4898139;29;20283;-91
2022/11/10 12:34:24;;;;;;;27.60;21.50;;;;;;;18.62;58.55;95273.47;4898465;29;20196;-93
2022/11/10 12:36:58;;;;;;;26.03;21.20;;;;;;;18.84;58.54;95304.78;4898469;29;20219;-92
2022/11/10 12:42:48;;;;;;;26.93;21.40;;;;;;;18.64;58.64;95276.69;4825116;29;20203;-93
2022/11/10 12:46:00;;;;;;;27.60;19.77;;;;;;;18.83;58.70;95308.34;4826090;29;20209;-90
2022/11/10 12:49:18;;;;;;;33.43;20.20;;;;;;;18.83;58.62;95316.13;4826596;29;20207;-92